Latest Weather Observations for Yeppoon

IDQ60801

Issued at 10:43 pm EST Wednesday 25 May 2022 (issued every 10 minutes, with the page automatically refreshed every 10 minutes)

About weather observations | Map of weather stations | Latest weather observations for QLD | Other Formats
Station Details ID: 033294 Name: YEPPOON THE ESPLANADE Lat: -23.14 Lon: 150.75 Height: 5.5 m
Data from the previous 72 hours. | See also: Recent months at Yeppoon
Date/Time
EST
Temp
°C
App
Temp
°C
Dew
Point
°C
Rel
Hum
%
Delta-T
°C
Wind Press
QNH
hPa
Press
MSL
hPa
Rain since
9am
mm
Dir  Spd
km/h
Gust
km/h
Spd
kts
Gust
kts
25/10:30pm 20.9 20.3 17.5 81 2.1 SE 17 26 9 14 1015.6 1015.6 0.0
25/10:00pm 21.0 20.6 17.2 79 2.3 SSE 15 20 8 11 1015.6 1015.6 0.0
25/09:30pm 21.2 20.8 17.2 78 2.4 SE 15 28 8 15 1015.9 1015.9 0.0
25/09:00pm 21.4 21.6 17.6 79 2.3 SE 13 19 7 10 1016.0 1016.0 0.0
25/08:30pm 21.5 22.3 18.1 81 2.1 SSE 11 19 6 10 1016.1 1016.1 0.0
25/08:00pm 21.8 22.1 17.8 78 2.5 SSE 13 20 7 11 1016.0 1016.0 0.0
25/07:30pm 22.0 22.3 17.8 77 2.6 SE 13 19 7 10 1016.1 1016.1 0.0
25/07:00pm 21.9 22.7 18.1 79 2.4 SSE 11 17 6 9 1015.9 1015.9 0.0
25/06:30pm 22.2 22.3 18.4 79 2.4 SE 15 20 8 11 1015.7 1015.7 0.0
25/06:00pm 22.2 22.5 18.0 77 2.6 SE 13 19 7 10 1015.4 1015.4 0.0
25/05:30pm 22.4 21.4 17.5 74 3.0 SE 19 26 10 14 1015.1 1015.1 0.0
25/05:00pm 22.6 22.1 17.7 74 3.0 SE 17 26 9 14 1014.8 1014.8 0.0
25/04:30pm 22.7 21.6 17.4 72 3.3 ESE 19 28 10 15 1014.5 1014.5 0.0
25/04:00pm 23.1 22.2 17.8 72 3.3 ESE 19 32 10 17 1014.4 1014.4 0.0
25/03:30pm 23.3 22.9 18.0 72 3.3 ESE 17 28 9 15 1014.4 1014.4 0.0
25/03:00pm 23.8 23.4 18.0 70 3.6 SE 17 26 9 14 1014.5 1014.5 0.0
25/02:30pm 23.3 22.6 18.2 73 3.2 ESE 19 28 10 15 1014.8 1014.8 0.0
25/02:00pm 23.8 23.4 18.0 70 3.6 SE 17 26 9 14 1015.1 1015.1 0.0
25/01:30pm 23.3 23.8 18.4 74 3.1 SE 13 19 7 10 1015.5 1015.5 0.0
25/01:00pm 23.5 23.5 18.2 72 3.3 ESE 15 26 8 14 1015.7 1015.7 0.0
25/12:30pm 23.1 22.7 18.0 73 3.2 SE 17 24 9 13 1016.3 1016.3 0.0
25/12:00pm 23.3 23.1 18.6 75 3.0 SE 17 22 9 12 1016.6 1016.6 0.0
25/11:30am 23.4 23.1 18.3 73 3.2 SE 17 24 9 13 1016.9 1016.9 0.0
25/11:00am 23.1 22.5 17.6 71 3.4 SE 17 26 9 14 1017.3 1017.3 0.0
25/10:30am 22.3 21.5 17.2 73 3.1 SE 17 28 9 15 1017.7 1017.7 0.0
25/10:00am 21.9 21.2 17.3 75 2.8 SE 17 28 9 15 1017.9 1017.9 0.0
25/09:30am 21.4 20.3 17.4 78 2.5 SSE 19 28 10 15 1018.2 1018.2 0.0
25/09:00am 20.6 20.8 17.6 83 1.8 SSE 13 20 7 11 1018.4 1018.4 0.0
25/08:30am 19.8 20.3 17.4 86 1.5 SSW 11 15 6 8 1018.1 1018.1 0.0
25/08:00am 19.1 19.7 16.9 87 1.3 SSW 9 13 5 7 1017.9 1017.9 0.0
25/07:30am 18.3 18.8 16.5 89 1.1 SW 9 11 5 6 1017.7 1017.7 0.0
25/07:00am 18.2 18.8 16.7 91 0.9 SSW 9 13 5 7 1017.4 1017.4 0.0
25/06:30am 17.9 18.0 16.4 91 0.9 SSW 11 13 6 7 1017.0 1017.0 0.0
25/06:00am 18.2 18.8 16.7 91 0.9 S 9 13 5 7 1016.5 1016.5 0.0
25/05:30am 18.0 18.4 16.3 90 1.0 SSW 9 15 5 8 1016.5 1016.5 0.0
25/05:00am 18.1 18.2 16.4 90 1.0 SSW 11 15 6 8 1016.1 1016.1 0.0
25/04:30am 18.5 19.1 16.7 89 1.1 S 9 15 5 8 1016.1 1016.1 0.0
25/04:00am 18.1 18.5 16.4 90 1.0 S 9 13 5 7 1016.1 1016.1 0.0
25/03:30am 17.9 18.2 16.1 89 1.1 SSW 9 15 5 8 1016.3 1016.3 0.0
25/03:00am 18.1 18.1 16.3 89 1.1 SSW 11 19 6 10 1016.4 1016.4 0.0
25/02:30am 18.1 18.5 16.4 90 1.0 SW 9 17 5 9 1016.8 1016.8 0.0
25/02:00am 18.4 18.5 16.6 89 1.1 SSW 11 20 6 11 1016.9 1016.9 0.0
25/01:30am 18.6 18.7 16.6 88 1.2 S 11 20 6 11 1017.0 1017.0 0.0
25/01:00am 19.0 19.6 16.8 87 1.3 S 9 15 5 8 1017.4 1017.4 0.0
25/12:30am 19.6 19.5 17.0 85 1.6 S 13 20 7 11 1017.6 1017.6 0.0
25/12:00am 19.7 19.6 16.9 84 1.7 SSE 13 19 7 10 1017.6 1017.6 0.0
 
Date/Time
EST
Temp
°C
App
Temp
°C
Dew
Point
°C
Rel
Hum
%
Delta-T
°C
Wind Press
QNH
hPa
Press
MSL
hPa
Rain since
9am
mm
Dir  Spd
km/h
Gust
km/h
Spd
kts
Gust
kts
24/11:30pm 19.8 19.7 17.0 84 1.7 SSE 13 20 7 11 1017.8 1017.8 0.0
24/11:00pm 20.0 19.9 17.0 83 1.8 SSE 13 19 7 10 1017.9 1017.9 0.0
24/10:30pm 20.2 20.1 17.0 82 1.9 S 13 22 7 12 1018.3 1018.3 0.0
24/10:00pm 20.4 20.4 17.2 82 1.9 S 13 19 7 10 1018.3 1018.3 0.0
24/09:30pm 20.9 20.5 17.1 79 2.3 SSE 15 22 8 12 1018.4 1018.4 0.0
24/09:00pm 21.3 20.2 17.3 78 2.4 SSE 19 28 10 15 1018.2 1018.2 0.0
24/08:30pm 21.7 20.0 17.3 76 2.7 SE 22 39 12 21 1018.2 1018.2 0.0
24/08:00pm 21.9 20.7 17.5 76 2.7 SE 20 32 11 17 1018.1 1018.1 0.0
24/07:30pm 22.1 21.0 17.7 76 2.7 SE 20 30 11 16 1017.8 1017.8 0.0
24/07:00pm 22.4 20.4 17.5 74 3.0 SE 24 35 13 19 1017.5 1017.5 0.0
24/06:30pm 22.3 21.2 17.7 75 2.9 SE 20 32 11 17 1017.1 1017.1 0.0
24/06:00pm 22.4 20.2 16.9 71 3.4 SE 24 39 13 21 1016.6 1016.6 0.0
24/05:30pm 22.5 21.5 17.6 74 3.0 SE 19 35 10 19 1016.5 1016.5 0.0
24/05:00pm 22.6 21.7 18.2 76 2.7 SE 20 30 11 16 1016.3 1016.3 0.0
24/04:30pm 22.8 22.4 18.1 75 2.9 SE 17 24 9 13 1016.0 1016.0 0.0
24/04:00pm 23.1 22.2 18.2 74 3.1 SE 20 32 11 17 1015.8 1015.8 0.0
24/03:30pm 22.7 22.8 19.1 80 2.3 ESE 17 24 9 13 1015.7 1015.7 0.0
24/03:00pm 23.2 22.7 18.7 76 2.8 SE 19 26 10 14 1015.7 1015.7 0.0
24/02:30pm 23.3 21.8 17.7 71 3.5 SE 22 32 12 17 1015.8 1015.8 0.0
24/02:00pm 23.6 22.8 18.5 73 3.2 SE 20 30 11 16 1015.7 1015.7 0.0
24/01:30pm 23.7 22.9 18.1 71 3.5 SE 19 28 10 15 1015.5 1015.5 0.0
24/01:00pm 23.7 22.7 17.9 70 3.6 SE 20 30 11 16 1015.9 1015.9 0.0
24/12:30pm 23.8 23.3 18.7 73 3.2 SSE 19 26 10 14 1016.2 1016.2 0.0
24/12:00pm 22.7 22.1 18.5 77 2.6 SE 19 26 10 14 1016.7 1016.7 0.0
24/11:30am 23.1 22.0 17.8 72 3.3 SE 20 32 11 17 1017.0 1017.0 0.0
24/11:00am 22.8 21.9 18.1 75 2.9 SSE 20 30 11 16 1017.3 1017.3 0.0
24/10:30am 22.4 21.8 18.4 78 2.5 SE 19 30 10 16 1017.5 1017.5 0.0
24/10:00am 22.1 21.2 18.3 79 2.4 SSE 20 32 11 17 1017.8 1017.8 0.0
24/09:30am 21.4 21.4 18.0 81 2.1 SSE 15 20 8 11 1018.0 1018.0 0.0
24/09:00am 20.5 19.9 17.5 83 1.8 SSE 17 24 9 13 1018.2 1018.2 8.4
24/08:30am 19.9 20.0 17.5 86 1.5 S 13 20 7 11 1017.8 1017.8 8.4
24/08:00am 19.3 19.5 17.6 90 1.0 SSW 13 17 7 9 1017.5 1017.5 8.4
24/07:30am 18.9 19.1 17.6 92 0.8 SSW 13 20 7 11 1017.5 1017.5 8.4
24/07:00am 18.6 19.1 17.4 93 0.7 SSW 11 15 6 8 1017.1 1017.1 8.4
24/06:30am 18.3 18.8 17.5 95 0.5 SSW 11 17 6 9 1016.8 1016.8 8.4
24/06:00am 18.3 18.7 17.3 94 0.6 S 11 19 6 10 1016.5 1016.5 8.0
24/05:30am 18.3 18.3 17.1 93 0.7 SSW 13 20 7 11 1016.3 1016.3 8.0
24/05:00am 18.1 18.5 17.3 95 0.5 SSW 11 17 6 9 1016.2 1016.2 7.8
24/04:30am 18.1 17.9 17.5 96 0.4 SSW 15 20 8 11 1016.2 1016.2 7.8
24/04:00am 18.3 17.7 17.5 95 0.5 SSW 17 26 9 14 1016.3 1016.3 7.0
24/03:30am 18.4 17.6 17.1 92 0.8 SSW 17 26 9 14 1016.2 1016.2 6.4
24/03:00am 18.6 18.1 16.9 90 1.0 SSW 15 24 8 13 1016.0 1016.0 6.4
24/02:30am 18.2 18.1 16.9 92 0.8 SSW 13 22 7 12 1016.2 1016.2 6.4
24/02:00am 18.1 16.9 17.0 93 0.7 SSW 19 28 10 15 1016.4 1016.4 6.4
24/01:30am 18.7 17.7 16.7 88 1.2 S 17 22 9 12 1016.8 1016.8 6.2
24/01:00am 18.8 18.1 16.4 86 1.4 S 15 20 8 11 1017.0 1017.0 6.2
24/12:30am 18.8 17.8 16.6 87 1.3 SSW 17 26 9 14 1016.9 1016.9 6.2
24/12:00am 18.8 17.9 16.8 88 1.2 SSW 17 26 9 14 1017.3 1017.3 6.2
 
Date/Time
EST
Temp
°C
App
Temp
°C
Dew
Point
°C
Rel
Hum
%
Delta-T
°C
Wind Press
QNH
hPa
Press
MSL
hPa
Rain since
9am
mm
Dir  Spd
km/h
Gust
km/h
Spd
kts
Gust
kts
23/11:30pm 19.1 18.9 16.7 86 1.4 S 13 22 7 12 1017.7 1017.7 6.2
23/11:00pm 19.4 19.1 16.4 83 1.8 S 13 20 7 11 1017.8 1017.8 6.2
23/10:30pm 19.3 19.0 16.5 84 1.7 S 13 20 7 11 1017.8 1017.8 6.2
23/10:00pm 19.3 18.7 16.7 85 1.6 S 15 22 8 12 1017.8 1017.8 6.2
23/09:30pm 19.3 19.1 16.7 85 1.6 SSW 13 26 7 14 1017.9 1017.9 6.2
23/09:00pm 19.2 18.3 16.8 86 1.4 SSW 17 26 9 14 1017.9 1017.9 6.2
23/08:30pm 19.2 18.3 16.8 86 1.4 SSW 17 28 9 15 1018.1 1018.1 6.2
23/08:00pm 18.9 18.4 16.9 88 1.2 SSW 15 22 8 12 1018.0 1018.0 6.2
23/07:30pm 18.7 18.3 17.2 91 0.9 SSW 15 20 8 11 1018.0 1018.0 6.2
23/07:00pm 18.5 18.1 17.2 92 0.8 SSW 15 20 8 11 1017.7 1017.7 6.2
23/06:30pm 18.6 18.3 17.4 93 0.7 SSW 15 26 8 14 1017.6 1017.6 6.2
23/06:00pm 18.8 17.7 17.3 91 0.9 SSW 19 28 10 15 1017.4 1017.4 6.2
23/05:30pm 18.9 17.7 17.6 92 0.8 SSW 20 30 11 16 1017.2 1017.2 6.2
23/05:00pm 18.9 17.4 17.7 93 0.7 SSW 22 33 12 18 1017.0 1017.0 5.8
23/04:30pm 19.0 19.0 18.0 94 0.6 SSW 15 24 8 13 1016.8 1016.8 5.8
23/04:00pm 19.1 19.1 18.1 94 0.6 SSW 15 22 8 12 1016.6 1016.6 5.8
23/03:30pm 19.2 18.6 18.4 95 0.5 SSW 19 26 10 14 1016.6 1016.6 5.2
23/03:00pm 19.5 19.8 18.7 95 0.5 S 15 26 8 14 1016.5 1016.5 4.2
23/02:30pm 19.7 18.9 18.5 93 0.7 S 20 35 11 19 1016.3 1016.3 3.4
23/02:00pm 20.1 19.9 19.4 96 0.4 SSE 19 32 10 17 1016.3 1016.3 3.4
23/01:30pm 19.8 19.1 18.6 93 0.7 S 20 28 11 15 1016.6 1016.6 3.0
23/01:00pm 19.4 18.5 18.2 93 0.7 S 20 32 11 17 1017.0 1017.0 2.8
23/12:30pm 19.2 18.3 18.2 94 0.6 SSE 20 32 11 17 1017.2 1017.2 2.2
23/12:00pm 19.2 18.3 18.2 94 0.6 SSE 20 33 11 18 1017.6 1017.6 0.8
23/11:30am 19.8 - - - - SSE 24 35 13 19 1017.6 1017.6 0.2
23/11:00am 20.9 - - - - SSE 20 35 11 19 1018.0 1018.0 0.0
23/10:30am 20.9 - - - - SSE 28 46 15 25 1018.2 1018.2 0.0
23/10:00am 21.1 - - - - SSE 28 48 15 26 1018.5 1018.5 0.0
23/09:59am 21.0 - - - - SSE 28 48 15 26 1018.4 1018.4 0.0
23/09:30am 21.1 - - - - SSE 24 37 13 20 1018.5 1018.5 0.0
23/09:00am 20.5 - - - - SSE 22 35 12 19 1018.4 1018.4 0.2
23/08:30am 20.1 - - - - SSE 24 39 13 21 1018.0 1018.0 0.2
23/08:00am 20.3 - - - - SSE 26 33 14 18 1017.9 1017.9 0.2
23/07:30am 19.3 - - - - S 9 13 5 7 1017.8 1017.8 0.2
23/07:00am 18.8 - - - - S 11 17 6 9 1017.5 1017.5 0.2
23/06:30am 18.9 - - - - S 13 22 7 12 1017.3 1017.3 0.2
23/06:00am 18.9 - - - - S 13 24 7 13 1016.9 1016.9 0.2
23/05:30am 18.8 - - - - SSW 15 24 8 13 1016.6 1016.6 0.2
23/05:00am 19.1 - - - - SSW 15 22 8 12 1016.2 1016.2 0.2
23/04:30am 19.3 - - - - S 13 20 7 11 1016.1 1016.1 0.2
23/04:00am 19.4 - - - - SSW 13 20 7 11 1016.1 1016.1 0.2
23/03:30am 19.9 - - - - S 17 28 9 15 1015.9 1015.9 0.2
23/03:00am 20.0 - - - - SSE 19 28 10 15 1016.0 1016.0 0.2
23/02:30am 20.2 - - - - SSE 15 20 8 11 1016.2 1016.2 0.2
23/02:00am 20.1 - - - - SSE 17 26 9 14 1016.3 1016.3 0.2
23/01:30am 20.2 - - - - SSE 19 32 10 17 1016.3 1016.3 0.2
23/01:00am 20.4 - - - - SSE 17 30 9 16 1016.4 1016.4 0.2
23/12:30am 20.6 - - - - SSE 17 26 9 14 1016.3 1016.3 0.2
23/12:00am 20.7 - - - - SSE 17 22 9 12 1016.5 1016.5 0.2
 
Date/Time
EST
Temp
°C
App
Temp
°C
Dew
Point
°C
Rel
Hum
%
Delta-T
°C
Wind Press
QNH
hPa
Press
MSL
hPa
Rain since
9am
mm
Dir  Spd
km/h
Gust
km/h
Spd
kts
Gust
kts
22/11:30pm 20.5 - - - - SSE 17 26 9 14 1016.6 1016.6 0.2
22/11:00pm 20.6 - - - - SSE 19 26 10 14 1016.7 1016.7 0.2

Other formats

Comma delimited format used in spreadsheet applications
http://www.bom.gov.au/fwo/IDQ60801/IDQ60801.94373.axf

JavaScript Object Notation format (JSON) in row-major order
http://www.bom.gov.au/fwo/IDQ60801/IDQ60801.94373.json

Data quality

Most of these data are generated automatically and are frequently updated. Quality checks on data are not normally performed. It is possible for incorrect values to appear. Refer to information at About Latest Weather Observations and please check the disclaimer before using these data.